createdAt,value
2023-02-26T00:13:33.670Z,3.2
2023-02-26T00:28:42.856Z,2.4
2023-02-26T00:43:52.522Z,4.4
2023-02-26T00:59:02.313Z,4.9
2023-02-26T01:14:11.430Z,4.8
2023-02-26T01:29:24.640Z,4.8
2023-02-26T01:44:34.487Z,3.7
2023-02-26T01:59:44.021Z,4.8
2023-02-26T02:14:53.396Z,3.2
2023-02-26T02:30:03.459Z,4.5
2023-02-26T02:45:12.850Z,3.6
2023-02-26T03:00:23.190Z,4.8
2023-02-26T03:15:32.204Z,4.5
2023-02-26T03:30:41.939Z,3.2
2023-02-26T03:45:51.880Z,2.2
2023-02-26T04:01:01.525Z,6
2023-02-26T04:16:10.808Z,4
2023-02-26T04:31:21.249Z,2.4
2023-02-26T04:46:31.476Z,1.9
2023-02-26T05:01:41.557Z,3.3
2023-02-26T05:16:51.106Z,3.1
2023-02-26T05:32:01.314Z,2.7
2023-02-26T05:47:10.892Z,6.4
2023-02-26T06:02:20.976Z,6
2023-02-26T06:17:31.109Z,8
2023-02-26T06:32:41.177Z,3.2
2023-02-26T06:47:50.376Z,4.3
2023-02-26T07:02:59.262Z,4.5
2023-02-26T07:18:09.192Z,2.5
2023-02-26T07:33:18.718Z,4.7
2023-02-26T07:48:28.078Z,2
2023-02-26T08:03:36.751Z,4.3
2023-02-26T08:18:46.218Z,5.6
2023-02-26T08:33:54.283Z,5.9
2023-02-26T08:49:04.000Z,3.4
2023-02-26T09:04:14.000Z,2.6
2023-02-26T09:19:23.165Z,2
2023-02-26T09:34:33.373Z,3.6
2023-02-26T09:49:42.937Z,2.1
2023-02-26T10:04:52.617Z,1.5
2023-02-26T10:20:02.163Z,3.5
2023-02-26T10:35:11.812Z,1.4
2023-02-26T10:50:20.397Z,1.4
2023-02-26T11:05:30.192Z,1.5
2023-02-26T11:20:39.370Z,1.5
2023-02-26T11:35:48.270Z,1.3
2023-02-26T11:50:57.972Z,1.6
2023-02-26T12:06:08.283Z,3.5
2023-02-26T12:21:25.951Z,1.9
2023-02-26T12:36:50.157Z,3.2
2023-02-26T12:52:00.206Z,1.5
2023-02-26T13:07:09.213Z,3
2023-02-26T13:22:18.373Z,1.6
2023-02-26T13:37:28.278Z,2.1
2023-02-26T13:52:40.044Z,2.2
2023-02-26T14:07:48.733Z,1.5
2023-02-26T14:22:57.753Z,1.9
2023-02-26T14:38:06.771Z,1.8
2023-02-26T14:53:15.209Z,1.3
2023-02-26T15:08:24.675Z,1.4
2023-02-26T15:23:33.745Z,1.3
2023-02-26T15:38:43.808Z,1.3
2023-02-26T15:53:53.363Z,1.5
2023-02-26T16:09:03.002Z,2.6
2023-02-26T16:24:12.542Z,3
2023-02-26T16:39:24.876Z,2.8
2023-02-26T16:54:35.071Z,4
2023-02-26T17:09:44.109Z,3.2
2023-02-26T17:24:54.185Z,4
2023-02-26T17:40:03.697Z,3.1
2023-02-26T17:55:13.088Z,4.8
2023-02-26T18:10:25.865Z,8
2023-02-26T18:25:35.486Z,4.9
2023-02-26T18:40:44.777Z,6.7
2023-02-26T18:55:53.887Z,3.4
2023-02-26T19:11:03.508Z,6.1
2023-02-26T19:26:12.954Z,3.2
2023-02-26T19:41:27.512Z,8.9
2023-02-26T19:56:38.116Z,4.1
2023-02-26T20:11:47.171Z,5.4
2023-02-26T20:26:56.248Z,7.1
2023-02-26T20:42:05.691Z,4.4
2023-02-26T20:57:15.355Z,8.8
2023-02-26T21:12:25.137Z,11.1
2023-02-26T21:27:34.571Z,8.3
2023-02-26T21:42:43.874Z,11
2023-02-26T21:57:54.082Z,12.5
2023-02-26T22:13:03.545Z,9.1
2023-02-26T22:28:12.983Z,8.2
2023-02-26T22:43:26.459Z,6.3
2023-02-26T22:58:35.466Z,10.8
2023-02-26T23:13:45.375Z,11.6
2023-02-26T23:28:55.441Z,10.5
2023-02-26T23:44:06.654Z,10.1
2023-02-26T23:59:15.847Z,5.8
